Time;durP1;ratioP1;P1;durP2;ratioP2;P2;SDS_P1;SDS_P2;PMS_P1;PMS_P2;Temp;Humidity;BMP_temperature;BMP_pressure;BME280_temperature;BME280_humidity;BME280_pressure;Samples;Min_cycle;Max_cycle;Signal;HPM_P1;HPM_P2
2023/05/17 00:02:06;;;;;;;0.60;0.30;;;10.60;99.90;;;;;;5117705;28;20433;-55
2023/05/17 00:04:34;;;;;;;1.20;0.30;;;10.60;99.90;;;;;;5117041;28;20731;-57
2023/05/17 00:07:01;;;;;;;0.70;0.30;;;10.50;99.90;;;;;;5116932;28;20867;-58
2023/05/17 00:09:29;;;;;;;0.50;0.30;;;10.40;99.90;;;;;;5117087;28;20504;-58
2023/05/17 00:11:56;;;;;;;1.60;0.30;;;10.40;99.90;;;;;;5117587;28;20432;-57
2023/05/17 00:14:23;;;;;;;2.30;0.40;;;10.50;99.90;;;;;;5117472;28;20412;-57
2023/05/17 00:16:51;;;;;;;1.00;0.30;;;10.50;99.90;;;;;;5116174;28;20436;-56
2023/05/17 00:19:18;;;;;;;0.80;0.30;;;10.40;99.90;;;;;;5116810;28;20455;-58
2023/05/17 00:21:45;;;;;;;0.70;0.30;;;10.50;99.90;;;;;;5117160;28;20420;-56
2023/05/17 00:24:12;;;;;;;1.17;0.30;;;10.40;99.90;;;;;;5116406;28;20847;-58
2023/05/17 00:26:41;;;;;;;2.00;0.30;;;10.40;99.90;;;;;;5110768;28;20443;-56
2023/05/17 00:29:08;;;;;;;2.58;0.30;;;10.30;99.90;;;;;;5114449;28;20432;-56
2023/05/17 00:31:35;;;;;;;1.10;0.30;;;10.50;99.90;;;;;;5116780;28;20420;-57
2023/05/17 00:34:02;;;;;;;0.52;0.30;;;10.40;99.90;;;;;;5116780;28;20417;-56
2023/05/17 00:36:29;;;;;;;1.20;0.30;;;10.40;99.90;;;;;;5114732;28;20755;-57
2023/05/17 00:38:56;;;;;;;2.42;0.30;;;10.40;99.90;;;;;;5116413;28;20720;-57
2023/05/17 00:41:23;;;;;;;1.20;0.30;;;10.40;99.90;;;;;;5116265;28;20428;-57
2023/05/17 00:43:52;;;;;;;1.30;0.30;;;10.30;99.90;;;;;;5115347;28;20416;-56
2023/05/17 00:46:19;;;;;;;0.70;0.30;;;10.40;99.90;;;;;;5115197;28;20859;-56
2023/05/17 00:48:46;;;;;;;2.20;0.30;;;10.30;99.90;;;;;;5115804;28;20855;-58
2023/05/17 00:51:15;;;;;;;0.52;0.30;;;10.20;99.90;;;;;;5115894;28;20428;-58
2023/05/17 00:53:42;;;;;;;0.55;0.30;;;10.10;99.90;;;;;;5096676;28;20870;-57
2023/05/17 00:56:09;;;;;;;1.60;0.30;;;10.10;99.90;;;;;;5095635;28;20422;-59
2023/05/17 00:58:37;;;;;;;0.90;0.30;;;10.10;99.90;;;;;;5096102;28;20425;-58
2023/05/17 01:01:05;;;;;;;1.30;0.30;;;10.10;99.90;;;;;;5099312;28;20436;-56
2023/05/17 01:03:32;;;;;;;0.80;0.30;;;10.10;99.90;;;;;;5114993;28;20436;-56
2023/05/17 01:05:59;;;;;;;1.73;0.30;;;10.10;99.90;;;;;;5114774;28;20866;-58
2023/05/17 01:08:27;;;;;;;1.70;0.30;;;10.20;99.90;;;;;;5115271;28;20840;-56
2023/05/17 01:11:01;;;;;;;1.60;0.30;;;10.30;99.90;;;;;;5114562;28;20440;-56
2023/05/17 01:13:35;;;;;;;2.47;0.20;;;10.20;99.90;;;;;;5115723;28;20835;-59
2023/05/17 01:16:10;;;;;;;1.98;0.30;;;10.20;99.90;;;;;;5115237;28;20727;-56
2023/05/17 01:18:44;;;;;;;0.90;0.30;;;10.20;99.90;;;;;;5115709;28;20776;-56
2023/05/17 01:21:28;;;;;;;2.28;0.30;;;10.30;99.90;;;;;;5096031;28;20441;-57
2023/05/17 01:24:03;;;;;;;0.50;0.30;;;10.20;99.90;;;;;;5095421;28;20409;-56
2023/05/17 01:26:38;;;;;;;0.70;0.30;;;10.20;99.90;;;;;;5095371;28;20430;-58
2023/05/17 01:29:07;;;;;;;1.00;0.30;;;10.20;99.90;;;;;;5095340;28;20421;-57
2023/05/17 01:31:35;;;;;;;0.80;0.30;;;10.10;99.90;;;;;;5094845;28;20430;-57
2023/05/17 01:34:06;;;;;;;0.90;0.30;;;10.20;99.90;;;;;;5103324;28;20731;-56
2023/05/17 01:36:33;;;;;;;0.90;0.30;;;10.10;99.90;;;;;;5115452;28;20424;-58
2023/05/17 01:39:00;;;;;;;0.60;0.30;;;10.10;99.90;;;;;;5113963;28;20420;-57
2023/05/17 01:41:30;;;;;;;1.50;0.30;;;9.90;99.90;;;;;;5115646;28;20784;-55
2023/05/17 01:44:09;;;;;;;0.80;0.30;;;9.90;99.90;;;;;;5114939;28;20420;-56
2023/05/17 01:46:40;;;;;;;0.60;0.30;;;9.90;99.90;;;;;;5114281;28;20428;-58
2023/05/17 01:49:12;;;;;;;0.90;0.40;;;9.90;99.90;;;;;;5111527;28;20470;-52
2023/05/17 01:51:47;;;;;;;0.82;0.30;;;10.00;99.90;;;;;;5112803;28;20443;-57
2023/05/17 01:54:18;;;;;;;1.35;0.30;;;10.10;99.90;;;;;;5114863;28;20428;-58
2023/05/17 01:56:50;;;;;;;0.70;0.30;;;9.90;99.90;;;;;;5114801;28;20432;-51
2023/05/17 01:59:24;;;;;;;1.17;0.30;;;9.90;99.90;;;;;;5112823;28;20432;-54
2023/05/17 02:01:53;;;;;;;1.20;0.30;;;9.80;99.90;;;;;;5115053;28;20518;-57
2023/05/17 02:04:21;;;;;;;0.68;0.30;;;9.80;99.90;;;;;;5113013;28;20424;-55
2023/05/17 02:06:48;;;;;;;0.60;0.30;;;9.70;99.90;;;;;;5115490;28;20428;-56
2023/05/17 02:09:15;;;;;;;0.70;0.30;;;9.80;99.90;;;;;;5115059;28;20739;-58
2023/05/17 02:11:42;;;;;;;0.80;0.30;;;9.80;99.90;;;;;;5115250;28;20431;-55
2023/05/17 02:14:09;;;;;;;0.90;0.40;;;9.70;99.90;;;;;;5114266;28;20720;-57
2023/05/17 02:16:38;;;;;;;0.90;0.30;;;9.80;99.90;;;;;;5114195;28;20797;-56
2023/05/17 02:19:06;;;;;;;0.70;0.30;;;9.70;99.90;;;;;;5114136;28;20438;-58
2023/05/17 02:21:33;;;;;;;1.20;0.30;;;9.70;99.90;;;;;;5115561;28;20428;-57
2023/05/17 02:24:00;;;;;;;0.95;0.30;;;9.70;99.90;;;;;;5114988;28;20419;-58
2023/05/17 02:26:27;;;;;;;1.40;0.30;;;9.70;99.90;;;;;;5114447;28;20424;-58
2023/05/17 02:28:54;;;;;;;1.50;0.30;;;9.70;99.90;;;;;;5114347;28;20538;-58
2023/05/17 02:31:23;;;;;;;0.50;0.30;;;9.80;99.90;;;;;;5113253;28;20424;-56
2023/05/17 02:33:52;;;;;;;0.90;0.40;;;9.80;99.90;;;;;;5114173;28;20428;-55
2023/05/17 02:36:20;;;;;;;1.33;0.30;;;9.80;99.90;;;;;;5115372;28;20716;-60
2023/05/17 02:38:47;;;;;;;1.70;0.30;;;9.70;99.90;;;;;;5114979;28;20431;-56
2023/05/17 02:41:14;;;;;;;1.40;0.30;;;9.70;99.90;;;;;;5112753;28;20485;-56
2023/05/17 02:43:41;;;;;;;0.83;0.30;;;9.70;99.90;;;;;;5115161;28;20412;-57
2023/05/17 02:46:08;;;;;;;0.80;0.33;;;9.70;99.90;;;;;;5114564;28;20424;-55
2023/05/17 02:48:35;;;;;;;1.33;0.40;;;9.70;99.90;;;;;;5114104;28;20424;-55
2023/05/17 02:51:03;;;;;;;1.45;0.30;;;9.60;99.90;;;;;;5101325;28;20536;-56
2023/05/17 02:53:30;;;;;;;0.63;0.30;;;9.60;99.90;;;;;;5094449;28;20986;-55
2023/05/17 02:55:58;;;;;;;0.50;0.30;;;9.40;99.90;;;;;;5094645;28;20459;-57
2023/05/17 02:58:25;;;;;;;0.60;0.30;;;9.30;99.90;;;;;;5094361;28;20425;-58
2023/05/17 03:00:52;;;;;;;1.00;0.30;;;9.30;99.90;;;;;;5115358;28;20440;-57
2023/05/17 03:03:19;;;;;;;1.00;0.30;;;9.30;99.90;;;;;;5118259;28;20454;-57
2023/05/17 03:05:46;;;;;;;1.10;0.30;;;9.30;99.90;;;;;;5118663;28;20439;-57
2023/05/17 03:08:16;;;;;;;2.10;0.30;;;9.40;99.90;;;;;;5116349;28;20461;-57
2023/05/17 03:10:43;;;;;;;0.57;0.30;;;9.30;99.90;;;;;;5098441;28;20432;-55
2023/05/17 03:13:10;;;;;;;0.60;0.20;;;9.30;99.90;;;;;;5097341;28;20741;-56
2023/05/17 03:15:37;;;;;;;1.00;0.30;;;9.20;99.90;;;;;;5096706;28;20422;-55
2023/05/17 03:18:04;;;;;;;0.70;0.30;;;9.20;99.90;;;;;;5100676;28;20442;-56
2023/05/17 03:20:32;;;;;;;0.80;0.40;;;9.20;99.90;;;;;;5096989;28;20422;-58
2023/05/17 03:22:59;;;;;;;1.00;0.20;;;9.20;99.90;;;;;;5097189;28;20471;-59
2023/05/17 03:25:27;;;;;;;0.60;0.40;;;9.20;99.90;;;;;;5096423;28;20493;-55
2023/05/17 03:27:54;;;;;;;0.47;0.30;;;9.20;99.90;;;;;;5108182;28;20427;-57
2023/05/17 03:30:21;;;;;;;1.40;0.30;;;9.10;99.90;;;;;;5117287;28;20419;-53
2023/05/17 03:32:48;;;;;;;1.77;0.32;;;9.10;99.90;;;;;;5117385;28;20785;-54
2023/05/17 03:35:15;;;;;;;1.10;0.45;;;9.10;99.90;;;;;;5117556;28;20850;-55
2023/05/17 03:37:42;;;;;;;0.80;0.40;;;9.10;99.90;;;;;;5096220;28;20441;-58
2023/05/17 03:40:10;;;;;;;1.83;0.30;;;9.10;99.90;;;;;;5097273;28;20422;-53
2023/05/17 03:42:38;;;;;;;0.70;0.40;;;9.00;99.90;;;;;;5097080;28;20460;-54
2023/05/17 03:45:06;;;;;;;0.50;0.30;;;9.00;99.90;;;;;;5101862;28;20909;-56
2023/05/17 03:47:33;;;;;;;1.17;0.32;;;9.00;99.90;;;;;;5117019;28;20440;-50
2023/05/17 03:50:00;;;;;;;1.00;0.40;;;8.90;99.90;;;;;;5117298;28;20420;-53
2023/05/17 03:52:27;;;;;;;0.60;0.30;;;9.00;99.90;;;;;;5117794;28;20420;-54
2023/05/17 03:54:54;;;;;;;1.70;0.40;;;9.00;99.90;;;;;;5116524;28;20428;-54
2023/05/17 03:57:21;;;;;;;0.60;0.30;;;9.00;99.90;;;;;;5117485;28;20431;-54
2023/05/17 03:59:50;;;;;;;0.70;0.30;;;9.00;99.90;;;;;;5111625;28;20429;-56
2023/05/17 04:02:17;;;;;;;1.13;0.30;;;9.00;99.90;;;;;;5096861;28;20554;-56
2023/05/17 04:04:49;;;;;;;0.80;0.40;;;9.00;99.90;;;;;;5104944;28;20859;-54
2023/05/17 04:07:17;;;;;;;0.70;0.40;;;9.00;99.90;;;;;;5116465;28;20428;-53
2023/05/17 04:09:44;;;;;;;0.73;0.32;;;9.00;99.90;;;;;;5107911;28;20861;-53
2023/05/17 04:12:11;;;;;;;1.45;0.35;;;9.00;99.90;;;;;;5095192;28;21016;-51
2023/05/17 04:14:38;;;;;;;2.30;0.30;;;9.10;99.90;;;;;;5114555;28;20424;-55
2023/05/17 04:17:07;;;;;;;0.85;0.40;;;9.10;99.90;;;;;;5105909;28;20434;-58
2023/05/17 04:19:34;;;;;;;1.20;0.30;;;9.20;99.90;;;;;;5114567;28;20432;-54
2023/05/17 04:22:01;;;;;;;0.90;0.38;;;9.10;99.90;;;;;;5115414;28;20471;-54
2023/05/17 04:24:28;;;;;;;0.70;0.30;;;9.20;99.90;;;;;;5110777;28;20438;-55
2023/05/17 04:26:55;;;;;;;0.50;0.30;;;9.20;99.90;;;;;;5114593;28;20900;-55
2023/05/17 04:29:22;;;;;;;1.00;0.30;;;9.20;99.90;;;;;;5112765;28;20432;-55
2023/05/17 04:31:50;;;;;;;0.98;0.40;;;9.10;99.90;;;;;;5113760;28;20443;-54
2023/05/17 04:34:18;;;;;;;0.70;0.32;;;9.00;99.90;;;;;;5115372;28;20435;-52
2023/05/17 04:36:45;;;;;;;1.40;0.40;;;9.00;99.90;;;;;;5110897;28;20444;-52
2023/05/17 04:39:12;;;;;;;1.00;0.40;;;9.30;99.90;;;;;;5115652;28;20833;-53
2023/05/17 04:41:39;;;;;;;0.93;0.30;;;9.30;99.90;;;;;;5113049;28;20472;-53
2023/05/17 04:44:07;;;;;;;0.60;0.40;;;9.40;99.90;;;;;;5095868;28;20428;-56
2023/05/17 04:46:34;;;;;;;0.90;0.40;;;9.50;99.90;;;;;;5109475;28;20440;-56
2023/05/17 04:49:02;;;;;;;1.13;0.40;;;9.60;99.90;;;;;;5106911;28;20871;-57
2023/05/17 04:51:30;;;;;;;0.70;0.33;;;9.60;99.90;;;;;;5114597;28;20432;-57
2023/05/17 04:53:59;;;;;;;1.23;0.30;;;9.60;99.90;;;;;;5115074;28;20519;-52
2023/05/17 04:56:26;;;;;;;0.50;0.30;;;9.60;99.90;;;;;;5101546;28;20430;-52
2023/05/17 04:58:54;;;;;;;0.60;0.30;;;9.60;99.90;;;;;;5107087;28;20467;-55
2023/05/17 05:01:21;;;;;;;0.50;0.30;;;9.60;99.90;;;;;;5107421;28;20884;-55
2023/05/17 05:03:49;;;;;;;1.50;0.40;;;9.70;99.90;;;;;;5113160;28;20818;-53
2023/05/17 05:06:16;;;;;;;0.60;0.30;;;9.60;99.90;;;;;;5111336;28;20879;-55
2023/05/17 05:08:44;;;;;;;1.70;0.40;;;9.50;99.90;;;;;;5094543;28;20450;-54
2023/05/17 05:11:11;;;;;;;0.60;0.30;;;9.40;99.90;;;;;;5092618;28;20425;-53
2023/05/17 05:13:40;;;;;;;1.60;0.40;;;9.40;99.90;;;;;;5104084;28;21366;-51
2023/05/17 05:16:07;;;;;;;2.17;0.40;;;9.20;99.90;;;;;;5111681;28;20947;-54
2023/05/17 05:18:35;;;;;;;1.00;0.40;;;9.40;99.90;;;;;;5112448;28;20723;-52
2023/05/17 05:21:02;;;;;;;1.23;0.40;;;9.60;99.90;;;;;;5113152;28;20424;-54
2023/05/17 05:23:29;;;;;;;2.50;0.50;;;9.90;99.90;;;;;;5110469;28;20465;-56
2023/05/17 05:25:58;;;;;;;2.22;0.40;;;10.00;99.90;;;;;;5110936;28;20847;-54
2023/05/17 05:28:25;;;;;;;1.20;0.40;;;10.20;99.90;;;;;;5113832;28;20423;-56
2023/05/17 05:30:58;;;;;;;0.80;0.40;;;10.20;99.90;;;;;;5114255;28;20711;-56
2023/05/17 05:33:25;;;;;;;1.00;0.40;;;10.30;99.90;;;;;;5109621;28;20432;-54
2023/05/17 05:35:52;;;;;;;2.30;0.40;;;10.30;99.90;;;;;;5111722;28;20432;-56
2023/05/17 05:38:19;;;;;;;2.10;0.50;;;10.20;99.90;;;;;;5114539;28;20412;-55
2023/05/17 05:40:47;;;;;;;0.82;0.30;;;10.20;99.90;;;;;;5113150;28;20435;-54
2023/05/17 05:43:16;;;;;;;1.00;0.40;;;10.20;99.90;;;;;;5113183;28;20714;-56
2023/05/17 05:45:46;;;;;;;1.70;0.40;;;10.10;99.90;;;;;;5111869;28;20506;-55
2023/05/17 05:48:13;;;;;;;0.70;0.40;;;10.20;99.90;;;;;;5112060;28;20801;-56
2023/05/17 05:50:43;;;;;;;1.00;0.40;;;10.20;99.90;;;;;;5110324;28;20774;-51
2023/05/17 05:53:11;;;;;;;1.00;0.43;;;10.40;99.90;;;;;;5105400;28;20438;-54
2023/05/17 05:55:41;;;;;;;0.80;0.40;;;10.50;99.90;;;;;;5110468;28;20432;-52
2023/05/17 05:58:09;;;;;;;1.20;0.40;;;10.50;99.90;;;;;;5113309;28;20415;-53
2023/05/17 06:00:37;;;;;;;1.40;0.40;;;10.50;99.90;;;;;;5110289;28;20924;-54
2023/05/17 06:03:05;;;;;;;1.00;0.50;;;10.50;99.90;;;;;;5091991;28;20413;-54
2023/05/17 06:05:32;;;;;;;1.70;0.40;;;10.50;99.90;;;;;;5092498;28;20457;-55
2023/05/17 06:07:59;;;;;;;1.30;0.40;;;10.60;99.90;;;;;;5092739;28;20733;-50
2023/05/17 06:10:26;;;;;;;1.30;0.40;;;10.90;99.90;;;;;;5092116;28;20418;-53
2023/05/17 06:12:53;;;;;;;2.40;0.50;;;10.90;99.90;;;;;;5100116;28;20420;-54
2023/05/17 06:15:20;;;;;;;3.30;0.50;;;10.80;99.90;;;;;;5110934;28;20428;-52
2023/05/17 06:17:49;;;;;;;1.13;0.50;;;10.80;99.90;;;;;;5111358;28;20423;-52
2023/05/17 06:20:16;;;;;;;2.85;0.40;;;10.40;99.90;;;;;;5111723;28;20867;-55
2023/05/17 06:22:43;;;;;;;0.80;0.40;;;10.50;99.90;;;;;;5111009;28;20541;-52
2023/05/17 06:25:10;;;;;;;0.70;0.40;;;10.50;99.90;;;;;;5112397;28;20422;-55
2023/05/17 06:27:37;;;;;;;0.70;0.40;;;10.70;99.90;;;;;;5112152;28;20468;-56
2023/05/17 06:30:06;;;;;;;1.00;0.50;;;10.90;99.90;;;;;;5112009;28;20424;-54
2023/05/17 06:32:33;;;;;;;1.60;0.40;;;11.10;99.90;;;;;;5112489;28;20433;-53
2023/05/17 06:35:01;;;;;;;1.40;0.50;;;11.10;99.90;;;;;;5113234;28;20727;-55
2023/05/17 06:37:28;;;;;;;2.05;0.50;;;11.00;99.90;;;;;;5115340;28;20448;-52
2023/05/17 06:40:04;;;;;;;1.33;0.50;;;11.10;99.90;;;;;;5116427;28;20855;-56
2023/05/17 06:42:32;;;;;;;1.30;0.40;;;10.90;99.90;;;;;;5112953;28;20440;-60
2023/05/17 06:44:59;;;;;;;1.30;0.50;;;10.90;99.90;;;;;;5114117;28;20416;-55
2023/05/17 06:47:26;;;;;;;1.40;0.52;;;10.80;99.90;;;;;;5112106;28;20724;-54
2023/05/17 06:49:53;;;;;;;0.95;0.50;;;10.90;99.90;;;;;;5115657;28;20738;-55
2023/05/17 06:52:23;;;;;;;1.20;0.40;;;10.70;99.90;;;;;;5115046;28;20424;-56
2023/05/17 06:54:50;;;;;;;0.80;0.50;;;10.70;99.90;;;;;;5113897;28;20713;-56
2023/05/17 06:57:17;;;;;;;1.80;0.50;;;10.80;99.90;;;;;;5113465;28;20822;-56
2023/05/17 06:59:44;;;;;;;1.40;0.50;;;11.00;99.90;;;;;;5115326;28;20416;-54
2023/05/17 07:02:11;;;;;;;1.48;0.50;;;11.30;99.90;;;;;;5116641;28;20630;-56
2023/05/17 07:04:38;;;;;;;1.10;0.40;;;11.50;99.90;;;;;;5116316;28;20743;-55
2023/05/17 07:07:05;;;;;;;1.30;0.50;;;11.30;99.90;;;;;;5114958;28;20430;-56
2023/05/17 07:09:34;;;;;;;1.75;0.60;;;11.40;99.90;;;;;;5115384;28;20424;-54
2023/05/17 07:12:01;;;;;;;1.20;0.60;;;11.50;99.90;;;;;;5114106;28;20436;-57
2023/05/17 07:14:28;;;;;;;1.52;0.50;;;11.30;99.90;;;;;;5112596;28;20896;-52
2023/05/17 07:16:55;;;;;;;1.85;0.50;;;11.50;99.90;;;;;;5112485;28;20427;-55
2023/05/17 07:19:22;;;;;;;1.83;0.50;;;11.50;99.90;;;;;;5112769;28;20866;-56
2023/05/17 07:21:49;;;;;;;1.50;0.50;;;11.50;99.90;;;;;;5114651;28;20440;-56
2023/05/17 07:24:16;;;;;;;1.63;0.50;;;11.50;99.90;;;;;;5115636;28;20419;-56
2023/05/17 07:26:46;;;;;;;1.65;0.52;;;11.60;99.90;;;;;;5114708;28;20420;-56
2023/05/17 07:29:13;;;;;;;2.30;0.50;;;11.90;99.90;;;;;;5114438;28;20420;-54
2023/05/17 07:31:40;;;;;;;1.60;0.60;;;12.00;99.90;;;;;;5107816;28;20436;-55
2023/05/17 07:34:07;;;;;;;1.58;0.70;;;12.00;99.90;;;;;;5098938;28;20433;-56
2023/05/17 07:36:34;;;;;;;2.20;0.50;;;12.10;99.90;;;;;;5112636;28;20583;-53
2023/05/17 07:39:01;;;;;;;0.90;0.60;;;12.20;99.90;;;;;;5112930;28;20420;-53
2023/05/17 07:41:28;;;;;;;1.20;0.60;;;12.10;99.90;;;;;;5112731;28;20495;-53
2023/05/17 07:43:57;;;;;;;1.50;0.60;;;12.20;99.90;;;;;;5111054;28;20781;-56
2023/05/17 07:46:24;;;;;;;3.00;0.60;;;12.10;99.90;;;;;;5111740;28;20432;-56
2023/05/17 07:48:51;;;;;;;1.10;0.60;;;12.10;99.90;;;;;;5111227;28;20953;-55
2023/05/17 07:51:18;;;;;;;1.30;0.60;;;12.20;99.90;;;;;;5097040;28;20438;-56
2023/05/17 07:53:46;;;;;;;2.40;0.60;;;12.10;99.90;;;;;;5102097;28;20880;-55
2023/05/17 07:56:13;;;;;;;2.83;0.70;;;12.00;99.90;;;;;;5105881;28;20436;-51
2023/05/17 07:58:40;;;;;;;1.20;0.50;;;12.00;99.90;;;;;;5111664;28;20431;-53
2023/05/17 08:01:08;;;;;;;1.40;0.60;;;12.10;99.90;;;;;;5110628;28;20874;-53
2023/05/17 08:03:35;;;;;;;1.58;0.60;;;12.30;99.90;;;;;;5111117;28;20522;-55
2023/05/17 08:06:02;;;;;;;1.30;0.57;;;12.60;99.90;;;;;;5111283;28;20439;-55
2023/05/17 08:08:29;;;;;;;2.28;0.60;;;12.70;99.90;;;;;;5106162;28;20465;-55
2023/05/17 08:10:57;;;;;;;1.20;0.60;;;12.70;99.90;;;;;;5093788;28;20425;-57
2023/05/17 08:13:24;;;;;;;1.90;0.60;;;12.60;99.90;;;;;;5099021;28;20424;-56
2023/05/17 08:15:51;;;;;;;1.08;0.60;;;12.80;99.90;;;;;;5113554;28;20485;-55
2023/05/17 08:18:20;;;;;;;3.50;0.70;;;13.00;99.90;;;;;;5112266;28;20420;-56
2023/05/17 08:20:48;;;;;;;1.20;0.60;;;13.20;99.90;;;;;;5112180;28;20536;-56
2023/05/17 08:23:15;;;;;;;1.05;0.63;;;13.50;99.90;;;;;;5111346;28;20417;-51
2023/05/17 08:25:42;;;;;;;2.10;0.60;;;13.70;99.90;;;;;;5111101;28;20427;-55
2023/05/17 08:28:09;;;;;;;1.45;0.60;;;13.70;99.90;;;;;;5114216;28;20420;-58
2023/05/17 08:30:36;;;;;;;1.10;0.60;;;13.80;99.90;;;;;;5114171;28;20858;-57
2023/05/17 08:33:04;;;;;;;1.60;0.60;;;13.90;99.90;;;;;;5092403;28;20777;-56
2023/05/17 08:35:32;;;;;;;1.00;0.60;;;13.90;99.90;;;;;;5091215;28;20627;-56
2023/05/17 08:37:59;;;;;;;1.30;0.60;;;13.90;99.90;;;;;;5091994;28;20957;-55
2023/05/17 08:40:28;;;;;;;1.90;0.60;;;13.80;99.90;;;;;;5092958;28;20417;-57
2023/05/17 08:42:55;;;;;;;1.85;0.70;;;13.90;99.90;;;;;;5093208;28;20486;-55
2023/05/17 08:45:22;;;;;;;1.10;0.60;;;14.10;99.90;;;;;;5111706;28;20716;-57
2023/05/17 08:47:53;;;;;;;1.65;0.60;;;14.00;99.90;;;;;;5112188;28;20516;-58
2023/05/17 08:50:20;;;;;;;1.50;0.60;;;14.10;99.90;;;;;;5112954;28;20427;-59
2023/05/17 08:52:51;;;;;;;1.70;0.60;;;13.90;99.90;;;;;;5112701;28;20420;-58
2023/05/17 08:55:19;;;;;;;1.10;0.60;;;13.60;99.90;;;;;;5110039;28;20497;-58
2023/05/17 08:57:47;;;;;;;1.10;0.50;;;13.40;99.90;;;;;;5109990;28;20416;-58
2023/05/17 09:00:19;;;;;;;1.50;0.60;;;13.50;99.90;;;;;;5112437;28;20507;-58
2023/05/17 09:02:47;;;;;;;1.30;0.60;;;13.60;99.90;;;;;;5112801;28;20862;-57
2023/05/17 09:05:15;;;;;;;1.20;0.60;;;13.70;99.90;;;;;;5110696;28;20486;-58
2023/05/17 09:07:42;;;;;;;2.80;0.70;;;13.80;99.90;;;;;;5108336;28;20424;-58
2023/05/17 09:10:12;;;;;;;1.75;0.70;;;13.90;99.90;;;;;;5109449;28;20515;-57
2023/05/17 09:12:39;;;;;;;1.10;0.60;;;13.70;99.90;;;;;;5108455;28;20438;-59
2023/05/17 09:15:14;;;;;;;1.30;0.70;;;13.70;99.90;;;;;;5109972;28;20818;-57
2023/05/17 09:17:42;;;;;;;1.40;0.60;;;13.80;99.90;;;;;;5108978;28;20840;-58
2023/05/17 09:20:10;;;;;;;1.60;0.60;;;14.00;99.90;;;;;;5107638;28;20895;-57
2023/05/17 09:22:37;;;;;;;1.50;0.60;;;14.30;99.90;;;;;;5109779;28;20428;-58
2023/05/17 09:25:05;;;;;;;1.35;0.60;;;14.50;99.90;;;;;;5112952;28;20452;-58
2023/05/17 09:27:33;;;;;;;1.90;0.60;;;14.50;99.90;;;;;;5103694;28;20750;-58
2023/05/17 09:30:01;;;;;;;1.40;0.60;;;14.20;99.90;;;;;;5110040;28;20575;-58
2023/05/17 09:32:28;;;;;;;1.20;0.60;;;14.50;99.90;;;;;;5108831;28;20428;-58
2023/05/17 09:34:56;;;;;;;1.80;0.60;;;14.60;99.90;;;;;;5110238;28;20424;-58
2023/05/17 09:37:24;;;;;;;1.38;0.70;;;14.60;99.90;;;;;;5111309;28;20459;-60
2023/05/17 09:39:52;;;;;;;1.50;0.70;;;14.50;99.90;;;;;;5112103;28;20412;-57
2023/05/17 09:42:19;;;;;;;1.40;0.60;;;14.60;99.90;;;;;;5113112;28;20444;-54
2023/05/17 09:44:53;;;;;;;1.40;0.60;;;14.80;99.90;;;;;;5111199;28;20568;-55
2023/05/17 09:47:25;;;;;;;1.20;1.00;;;14.90;99.90;;;;;;5110221;28;20873;-56
2023/05/17 09:49:52;;;;;;;1.88;0.60;;;14.90;99.90;;;;;;5110309;28;20420;-54
2023/05/17 09:52:20;;;;;;;1.10;0.60;;;14.70;99.90;;;;;;5111574;28;20507;-56
2023/05/17 09:54:54;;;;;;;1.50;0.60;;;14.70;99.90;;;;;;5111043;28;20420;-53
2023/05/17 09:57:22;;;;;;;0.80;0.50;;;14.70;99.90;;;;;;5111477;28;20432;-55
2023/05/17 09:59:51;;;;;;;1.20;0.60;;;15.00;99.90;;;;;;5108573;28;20431;-56
2023/05/17 10:02:22;;;;;;;1.17;0.60;;;15.10;99.90;;;;;;5109660;28;20426;-53
2023/05/17 10:04:51;;;;;;;2.60;0.60;;;15.30;99.90;;;;;;5110705;28;20507;-55
2023/05/17 10:07:20;;;;;;;1.30;0.50;;;15.60;99.90;;;;;;5109798;28;20449;-53
2023/05/17 10:09:48;;;;;;;2.20;0.70;;;15.90;99.90;;;;;;5111105;28;20419;-52
2023/05/17 10:12:18;;;;;;;1.27;0.57;;;16.10;99.90;;;;;;5114608;28;20436;-56
2023/05/17 10:14:46;;;;;;;1.48;0.60;;;15.70;99.90;;;;;;5104022;28;20440;-56
2023/05/17 10:17:15;;;;;;;1.10;0.60;;;15.70;99.90;;;;;;5109671;28;20859;-56
2023/05/17 10:19:43;;;;;;;1.00;0.50;;;15.50;99.90;;;;;;5114980;28;20515;-56
2023/05/17 10:22:11;;;;;;;1.75;0.60;;;15.60;99.90;;;;;;5117837;28;20496;-55
2023/05/17 10:24:39;;;;;;;1.50;0.50;;;15.60;99.90;;;;;;5115200;28;20447;-56
2023/05/17 10:27:07;;;;;;;1.20;0.57;;;16.10;99.90;;;;;;5113662;28;20870;-54
2023/05/17 10:29:34;;;;;;;1.70;0.60;;;16.50;99.90;;;;;;5102674;28;20433;-56
2023/05/17 10:32:06;;;;;;;2.30;0.70;;;16.50;99.90;;;;;;5113418;28;20428;-58
2023/05/17 10:34:35;;;;;;;0.90;0.50;;;16.50;99.90;;;;;;5115423;28;20820;-51
2023/05/17 10:37:04;;;;;;;1.55;0.50;;;16.30;99.90;;;;;;5112484;28;20482;-56
2023/05/17 10:39:33;;;;;;;1.00;0.60;;;16.20;99.90;;;;;;5112716;28;20740;-57
2023/05/17 10:42:03;;;;;;;1.55;0.60;;;16.20;99.90;;;;;;5113614;28;20436;-57
2023/05/17 10:44:32;;;;;;;2.08;0.60;;;16.20;99.90;;;;;;5115547;28;20804;-57
2023/05/17 10:47:00;;;;;;;1.20;0.70;;;16.40;99.90;;;;;;5115192;28;20455;-58
2023/05/17 10:49:30;;;;;;;1.70;0.70;;;16.30;99.90;;;;;;5115348;28;20426;-55
2023/05/17 10:51:59;;;;;;;1.20;0.60;;;16.40;99.90;;;;;;5114600;28;20526;-57
2023/05/17 10:54:35;;;;;;;1.48;0.60;;;16.50;99.90;;;;;;5112763;28;20416;-56
2023/05/17 10:57:05;;;;;;;1.70;0.70;;;16.90;99.90;;;;;;5113218;28;20431;-52
2023/05/17 10:59:34;;;;;;;1.55;0.60;;;16.40;99.90;;;;;;5111845;28;20694;-56
2023/05/17 11:02:04;;;;;;;1.45;0.65;;;16.50;99.90;;;;;;5114262;28;20467;-55
2023/05/17 11:04:37;;;;;;;1.50;0.80;;;16.20;99.90;;;;;;5113523;28;20692;-56
2023/05/17 11:07:28;;;;;;;2.57;0.60;;;16.20;99.90;;;;;;5113042;28;20835;-57
2023/05/17 11:10:04;;;;;;;0.90;0.50;;;16.00;99.90;;;;;;5106685;28;20423;-55
2023/05/17 11:12:34;;;;;;;1.10;0.60;;;15.70;99.90;;;;;;5115319;28;20530;-55
2023/05/17 11:15:06;;;;;;;1.20;0.60;;;15.70;99.90;;;;;;5114960;28;20416;-54
2023/05/17 11:17:48;;;;;;;1.50;0.60;;;15.60;99.90;;;;;;5112244;28;20530;-56
2023/05/17 11:20:35;;;;;;;1.70;0.60;;;15.60;99.90;;;;;;5111295;28;20424;-56
2023/05/17 11:23:06;;;;;;;1.60;0.70;;;15.70;99.90;;;;;;5112753;28;20469;-56
2023/05/17 11:25:35;;;;;;;1.58;0.70;;;15.70;99.90;;;;;;5112012;28;20530;-55
2023/05/17 11:28:08;;;;;;;1.38;0.60;;;15.60;99.90;;;;;;5110607;28;20463;-54
2023/05/17 11:30:41;;;;;;;1.30;0.60;;;15.40;99.90;;;;;;5110056;28;20517;-55
2023/05/17 11:33:08;;;;;;;1.90;0.60;;;15.40;99.90;;;;;;5111261;28;20433;-56
2023/05/17 11:35:36;;;;;;;1.60;0.50;;;15.20;99.90;;;;;;5113641;28;20867;-56
2023/05/17 11:38:24;;;;;;;1.40;0.60;;;15.40;99.90;;;;;;5105545;28;20549;-54
2023/05/17 11:40:53;;;;;;;1.30;0.60;;;15.40;99.90;;;;;;5106504;28;20517;-55
2023/05/17 11:43:22;;;;;;;1.30;0.60;;;15.30;99.90;;;;;;5113371;28;20416;-56
2023/05/17 11:45:50;;;;;;;1.42;0.65;;;15.20;99.90;;;;;;5113216;28;20421;-53
2023/05/17 11:48:18;;;;;;;1.23;0.65;;;15.10;99.90;;;;;;5112610;28;20774;-55
2023/05/17 11:50:47;;;;;;;1.70;0.70;;;15.10;99.90;;;;;;5112774;28;20455;-52
2023/05/17 11:53:17;;;;;;;2.10;0.68;;;15.10;99.90;;;;;;5111396;28;20562;-55
2023/05/17 11:55:47;;;;;;;1.27;0.60;;;14.80;99.90;;;;;;5113044;28;20856;-53
2023/05/17 11:58:16;;;;;;;2.28;0.60;;;14.90;99.90;;;;;;5110291;28;20908;-56
2023/05/17 12:00:43;;;;;;;1.70;0.70;;;15.00;99.90;;;;;;5110918;28;20432;-55
2023/05/17 12:03:21;;;;;;;1.20;0.70;;;15.00;99.90;;;;;;5113414;28;20518;-55
2023/05/17 12:05:49;;;;;;;0.90;0.60;;;14.90;99.90;;;;;;5110476;28;20428;-53
2023/05/17 12:08:17;;;;;;;1.58;0.50;;;15.00;99.90;;;;;;5110498;28;20419;-54
2023/05/17 12:10:48;;;;;;;2.40;0.60;;;15.20;99.90;;;;;;5111537;28;20428;-51
2023/05/17 12:13:15;;;;;;;1.60;0.60;;;15.10;99.90;;;;;;5108203;28;20424;-55
2023/05/17 12:15:46;;;;;;;1.80;0.70;;;15.10;99.90;;;;;;5106482;28;20491;-56
2023/05/17 12:18:13;;;;;;;2.40;0.70;;;15.30;99.90;;;;;;5101868;28;21317;-56
2023/05/17 12:20:54;;;;;;;1.52;0.60;;;15.40;99.90;;;;;;5106712;28;20426;-54
2023/05/17 12:23:27;;;;;;;1.38;0.60;;;15.30;99.90;;;;;;5106723;28;20783;-55
2023/05/17 12:26:07;;;;;;;1.90;0.60;;;15.40;99.90;;;;;;5108100;28;20527;-55
2023/05/17 12:28:35;;;;;;;2.22;0.70;;;15.80;99.90;;;;;;5113601;28;20423;-57
2023/05/17 12:31:04;;;;;;;1.88;0.50;;;16.00;99.90;;;;;;5113647;28;20424;-57
2023/05/17 12:33:33;;;;;;;1.17;0.60;;;16.00;99.90;;;;;;5110026;28;20432;-58
2023/05/17 12:36:02;;;;;;;2.90;0.70;;;16.20;99.90;;;;;;5110520;28;20436;-59
2023/05/17 12:38:32;;;;;;;1.40;0.50;;;16.30;99.90;;;;;;5111655;28;20424;-57
2023/05/17 12:41:01;;;;;;;1.80;0.50;;;16.40;99.90;;;;;;5111110;28;20439;-53
2023/05/17 12:43:30;;;;;;;1.40;0.70;;;16.10;99.90;;;;;;5112902;28;20507;-50
2023/05/17 12:46:04;;;;;;;1.10;0.70;;;16.40;99.90;;;;;;5113020;28;20504;-53
2023/05/17 12:48:33;;;;;;;1.40;0.60;;;16.70;99.90;;;;;;5110648;28;20519;-54
2023/05/17 12:51:06;;;;;;;1.00;0.60;;;16.60;99.90;;;;;;5113064;28;20586;-54
2023/05/17 12:53:37;;;;;;;1.20;0.60;;;16.70;99.90;;;;;;5111445;28;20801;-53
2023/05/17 12:56:05;;;;;;;1.60;0.60;;;16.60;99.90;;;;;;5112750;28;20437;-56
2023/05/17 12:58:34;;;;;;;1.30;0.60;;;16.60;99.90;;;;;;5111059;28;20422;-55